Terminal Aerodrome Forecast
Issued by NWS

Home | Current Version | Previous Version | Text Only | Print | Product List | Glossary On
Versions: 1 2 3 4 5 6 7 8 9 10 11 12 13 14 15 16 17 18 19 20 21 22 23 24 25 26
000
FTUS45 KGJT 051125
TAFVEL
TAF
KVEL 051125Z 0512/0612 22007KT P6SM FEW060 BKN100 OVC120
     FM051400 20006KT P6SM VCSH SCT060 OVC090
     FM051800 23008KT P6SM VCTS SCT050CB OVC070
     FM060000 24010KT P6SM VCSH BKN080
     FM060600 VRB03KT P6SM OVC100=

USA.gov is the U.S. government's official web portal to all federal, state and local government web resources and services.